Nuevotorreblanquilla — EADA — position and weather

sailwx.info

Track history (hours):
 
Tides and Currents Weather Stations Pressure Air Temp Water Temp Dewpoint Dewpoint Depression Visibility Wind Speed Wind Dir Waves Ship Positions

Nuevotorreblanquilla

Last reported at 2017-Oct-30 21:08 UTC. Time now 2017-Nov-22 18:39 UTC.
Position N 37°32' W 019°22'.
Warning: this ship's position is 22 days out of date.

Length 24 m; draft 3 m.

Type: Fishing. MMSI: 224066980.

Date/timePositionNaut miles runAvg speedWind from/ knotsBaromVisibWave heightAir tempDewpointWater temp
2017-Oct-30 21:08N 37°32' W 019°22'0 0.9
2017-Oct-30 20:59N 37°32' W 019°22'1 0.9
2017-Oct-30 20:22N 37°32' W 019°22'37 7.2
2017-Oct-30 15:10N 37°32' W 020°09'14 8.0
2017-Oct-30 13:22N 37°32' W 020°27'3 7.9
2017-Oct-30 13:00N 37°32' W 020°30'2 3.4
2017-Oct-30 12:30N 37°32' W 020°32'4 2.1
2017-Oct-30 10:36N 37°31' W 020°27'1 8.7
2017-Oct-30 10:31N 37°31' W 020°26'4 8.4
2017-Oct-30 09:59N 37°31' W 020°21'4 8.1
2017-Oct-30 09:31N 37°31' W 020°16'4 8.1
2017-Oct-30 09:01N 37°30' W 020°11'4 8.2
2017-Oct-30 08:30N 37°30' W 020°05'4 8.3
2017-Oct-30 08:00N 37°30' W 020°00'4 8.2
2017-Oct-30 07:31N 37°30' W 019°55'4 8.0
2017-Oct-30 07:00N 37°30' W 019°50'4 8.0
2017-Oct-30 06:30N 37°32' W 019°46'4 8.1
2017-Oct-30 06:00N 37°34' W 019°41'4 7.9
2017-Oct-30 05:30N 37°36' W 019°37'33 8.1
2017-Oct-30 01:24N 37°51' W 018°59'5 8.2
2017-Oct-30 00:46N 37°53' W 018°54'2 8.0
2017-Oct-30 00:29N 37°54' W 018°51'29 8.2
2017-Oct-29 20:58N 38°07' W 018°18'5 8.3
2017-Oct-29 20:23N 38°09' W 018°13'4 8.3
2017-Oct-29 19:56N 38°11' W 018°08'4 8.2
2017-Oct-29 19:30N 38°13' W 018°04'9 8.4
2017-Oct-29 18:24N 38°17' W 017°54'21 7.6
2017-Oct-29 15:41N 38°26' W 017°30'3 5.7
2017-Oct-29 15:08N 38°27' W 017°34'0 3.4
2017-Oct-29 15:00N 38°27' W 017°34'40 5.6
2017-Oct-29 07:48N 38°28' W 018°26'8 2.9
2017-Oct-29 05:08N 38°29' W 018°36'0 3.2
2017-Oct-29 05:00N 38°29' W 018°37'1 2.2
2017-Oct-29 04:30N 38°29' W 018°38'63 2.2
2017-Oct-27 23:38N 38°20' W 017°19'1 7.6
2017-Oct-27 23:30N 38°21' W 017°19'4 7.6
2017-Oct-27 22:57N 38°25' W 017°22'5 1.6
2017-Oct-27 19:48N 38°20' W 017°19'3 8.0
2017-Oct-27 19:27N 38°18' W 017°17'  
Track history (hours):
 
Tides and Currents Weather Stations Pressure Air Temp Water Temp Dewpoint Dewpoint Depression Visibility Wind Speed Wind Dir Waves Ship Positions

Nuevotorreblanquilla

Last reported at 2017-Oct-30 21:08 UTC. Time now 2017-Nov-22 18:39 UTC.
Position N 37°32' W 019°22'.
Warning: this ship's position is 22 days out of date.

Length 24 m; draft 3 m.

Type: Fishing. MMSI: 224066980.

Date/timePositionNaut miles runAvg speedWind from/ knotsBaromVisibWave heightAir tempDewpointWater temp
2017-Oct-30 21:08N 37°32' W 019°22'0 0.9
2017-Oct-30 20:59N 37°32' W 019°22'1 0.9
2017-Oct-30 20:22N 37°32' W 019°22'37 7.2
2017-Oct-30 15:10N 37°32' W 020°09'14 8.0
2017-Oct-30 13:22N 37°32' W 020°27'3 7.9
2017-Oct-30 13:00N 37°32' W 020°30'2 3.4
2017-Oct-30 12:30N 37°32' W 020°32'4 2.1
2017-Oct-30 10:36N 37°31' W 020°27'1 8.7
2017-Oct-30 10:31N 37°31' W 020°26'4 8.4
2017-Oct-30 09:59N 37°31' W 020°21'4 8.1
2017-Oct-30 09:31N 37°31' W 020°16'4 8.1
2017-Oct-30 09:01N 37°30' W 020°11'4 8.2
2017-Oct-30 08:30N 37°30' W 020°05'4 8.3
2017-Oct-30 08:00N 37°30' W 020°00'4 8.2
2017-Oct-30 07:31N 37°30' W 019°55'4 8.0
2017-Oct-30 07:00N 37°30' W 019°50'4 8.0
2017-Oct-30 06:30N 37°32' W 019°46'4 8.1
2017-Oct-30 06:00N 37°34' W 019°41'4 7.9
2017-Oct-30 05:30N 37°36' W 019°37'33 8.1
2017-Oct-30 01:24N 37°51' W 018°59'5 8.2
2017-Oct-30 00:46N 37°53' W 018°54'2 8.0
2017-Oct-30 00:29N 37°54' W 018°51'29 8.2
2017-Oct-29 20:58N 38°07' W 018°18'5 8.3
2017-Oct-29 20:23N 38°09' W 018°13'4 8.3
2017-Oct-29 19:56N 38°11' W 018°08'4 8.2
2017-Oct-29 19:30N 38°13' W 018°04'9 8.4
2017-Oct-29 18:24N 38°17' W 017°54'21 7.6
2017-Oct-29 15:41N 38°26' W 017°30'3 5.7
2017-Oct-29 15:08N 38°27' W 017°34'0 3.4
2017-Oct-29 15:00N 38°27' W 017°34'40 5.6
2017-Oct-29 07:48N 38°28' W 018°26'8 2.9
2017-Oct-29 05:08N 38°29' W 018°36'0 3.2
2017-Oct-29 05:00N 38°29' W 018°37'1 2.2
2017-Oct-29 04:30N 38°29' W 018°38'63 2.2
2017-Oct-27 23:38N 38°20' W 017°19'1 7.6
2017-Oct-27 23:30N 38°21' W 017°19'4 7.6
2017-Oct-27 22:57N 38°25' W 017°22'5 1.6
2017-Oct-27 19:48N 38°20' W 017°19'3 8.0
2017-Oct-27 19:27N 38°18' W 017°17'  

Dump ship's entire track history